N129DC PJON-PMDY

Flight info

Callsign N129DC
Flight time N/A
Altitude 36000
Route IMAXE OWODY EKUZY
Aircraft FA50/M-A/S

Departure

Time N/A
Airport PJON

Arrival

Time 2026-04-26 17:52
Airport Henderson Field (PMDY)
Time Latitude Longitude Altitude Speed Heading
2026-04-26 15:41 16.72856 -169.53026 14 ft 0 kts 240°
2026-04-26 15:42 16.72867 -169.53076 14 ft 11 kts 298°
2026-04-26 15:42 16.72855 -169.53158 14 ft 14 kts 238°
2026-04-26 15:42 16.72797 -169.53255 14 ft 16 kts 238°
2026-04-26 15:42 16.72800 -169.53343 13 ft 12 kts 288°
2026-04-26 15:43 16.72789 -169.53436 14 ft 18 kts 243°
2026-04-26 15:43 16.72712 -169.53583 14 ft 25 kts 240°
2026-04-26 15:43 16.72593 -169.53805 14 ft 25 kts 241°
2026-04-26 15:44 16.72506 -169.53965 14 ft 27 kts 240°
2026-04-26 15:44 16.72311 -169.54326 14 ft 20 kts 245°
2026-04-26 15:44 16.72262 -169.54424 14 ft 12 kts 242°
2026-04-26 15:45 16.72278 -169.54533 14 ft 8 kts 333°
2026-04-26 15:45 16.72318 -169.54518 14 ft 8 kts 54°
2026-04-26 15:46 16.72650 -169.53905 14 ft 113 kts 61°
2026-04-26 15:46 16.73110 -169.53036 282 ft 152 kts 62°
2026-04-26 15:46 16.73639 -169.52001 1209 ft 165 kts 62°
2026-04-26 15:46 16.74125 -169.51330 1725 ft 188 kts 45°
2026-04-26 15:47 16.75864 -169.50683 2534 ft 216 kts
2026-04-26 15:47 16.78684 -169.52340 3741 ft 256 kts 317°
2026-04-26 15:47 16.79893 -169.53757 4324 ft 264 kts 313°
2026-04-26 15:48 16.81063 -169.55246 4900 ft 271 kts 311°
2026-04-26 15:48 16.82253 -169.56801 5482 ft 275 kts 311°
2026-04-26 15:48 16.83444 -169.58361 6056 ft 278 kts 311°
2026-04-26 15:48 16.84711 -169.59911 6638 ft 281 kts 314°
2026-04-26 15:49 16.86080 -169.61406 7222 ft 283 kts 317°
2026-04-26 15:49 16.87508 -169.62803 7795 ft 285 kts 321°
2026-04-26 15:49 16.89028 -169.64156 8375 ft 287 kts 323°
2026-04-26 15:49 16.90604 -169.65456 8953 ft 290 kts 325°
2026-04-26 15:50 16.92236 -169.66724 9534 ft 292 kts 326°
2026-04-26 15:50 16.93880 -169.67943 10104 ft 294 kts 327°
2026-04-26 15:50 16.95575 -169.69157 10682 ft 296 kts 328°
2026-04-26 15:50 16.97307 -169.70366 11263 ft 299 kts 328°
2026-04-26 15:51 16.99041 -169.71553 11836 ft 301 kts 329°
2026-04-26 15:51 17.00815 -169.72751 12416 ft 303 kts 329°
2026-04-26 15:51 17.02607 -169.73947 12996 ft 305 kts 329°
2026-04-26 15:51 17.04392 -169.75130 13568 ft 308 kts 329°
2026-04-26 15:52 17.06216 -169.76331 14146 ft 310 kts 329°
2026-04-26 15:52 17.08036 -169.77525 14719 ft 312 kts 329°
2026-04-26 15:52 17.09897 -169.78743 15302 ft 314 kts 330°
2026-04-26 15:52 17.11130 -169.79547 15686 ft 315 kts 330°
2026-04-26 15:53 17.13611 -169.81164 16454 ft 317 kts 330°
2026-04-26 15:53 17.15489 -169.82386 17032 ft 318 kts 329°
2026-04-26 15:53 17.17376 -169.83613 17611 ft 319 kts 329°
2026-04-26 15:53 17.19241 -169.84824 18181 ft 320 kts 329°
2026-04-26 15:54 17.21146 -169.86061 18761 ft 321 kts 329°
2026-04-26 15:54 17.23066 -169.87307 19342 ft 327 kts 328°
2026-04-26 15:54 17.25024 -169.88579 19920 ft 340 kts 328°
2026-04-26 15:54 17.27060 -169.89900 20500 ft 351 kts 328°
2026-04-26 15:55 17.29165 -169.91267 21082 ft 359 kts 328°
2026-04-26 15:55 17.31324 -169.92668 21666 ft 364 kts 327°
2026-04-26 15:55 17.33467 -169.94061 22238 ft 369 kts 327°
2026-04-26 15:55 17.35673 -169.95495 22819 ft 373 kts 327°
2026-04-26 15:56 17.37869 -169.96923 23392 ft 377 kts 327°
2026-04-26 15:56 17.40115 -169.98383 23971 ft 380 kts 327°
2026-04-26 15:56 17.42382 -169.99857 24551 ft 384 kts 327°
2026-04-26 15:56 17.44638 -170.01325 25122 ft 387 kts 326°
2026-04-26 15:57 17.46937 -170.02821 25699 ft 391 kts 326°
2026-04-26 15:57 17.49273 -170.04342 26281 ft 394 kts 326°
2026-04-26 15:57 17.51619 -170.05869 26860 ft 397 kts 326°
2026-04-26 15:57 17.53176 -170.06883 27242 ft 399 kts 326°
2026-04-26 15:58 17.56319 -170.08930 28008 ft 402 kts 326°
2026-04-26 15:58 17.58692 -170.10477 28583 ft 405 kts 325°
2026-04-26 15:58 17.61101 -170.12047 29162 ft 408 kts 325°
2026-04-26 15:58 17.63527 -170.13629 29741 ft 410 kts 325°
2026-04-26 15:59 17.65933 -170.15198 30312 ft 412 kts 324°
2026-04-26 15:59 17.68382 -170.16796 30890 ft 414 kts 324°
2026-04-26 15:59 17.70845 -170.18402 31470 ft 415 kts 324°
2026-04-26 15:59 17.73273 -170.19987 32041 ft 415 kts 324°
2026-04-26 16:00 17.75735 -170.21594 32619 ft 416 kts 323°
2026-04-26 16:00 17.78200 -170.23204 33196 ft 416 kts 324°
2026-04-26 16:00 17.80631 -170.24793 33765 ft 416 kts 324°
2026-04-26 16:00 17.83096 -170.26403 34344 ft 415 kts 323°
2026-04-26 16:01 17.85564 -170.28016 34924 ft 415 kts 323°
2026-04-26 16:01 17.88020 -170.29620 35502 ft 414 kts 323°
2026-04-26 16:01 17.90446 -170.31207 35936 ft 417 kts 322°
2026-04-26 16:01 17.92950 -170.32850 36056 ft 427 kts 322°
2026-04-26 16:02 17.95477 -170.34513 36095 ft 437 kts 322°
2026-04-26 16:02 18.00754 -170.37989 36086 ft 452 kts 323°
2026-04-26 16:03 18.06088 -170.41491 36082 ft 456 kts 323°
2026-04-26 16:03 18.11502 -170.45041 36082 ft 459 kts 323°
2026-04-26 16:04 18.16907 -170.48584 36081 ft 460 kts 323°
2026-04-26 16:04 18.22364 -170.52163 36081 ft 461 kts 323°
2026-04-26 16:05 18.27814 -170.55742 36081 ft 461 kts 323°
2026-04-26 16:05 18.33268 -170.59328 36081 ft 463 kts 323°
2026-04-26 16:06 18.38718 -170.62915 36081 ft 464 kts 323°
2026-04-26 16:06 18.44184 -170.66515 36081 ft 465 kts 323°
2026-04-26 16:07 18.48753 -170.69526 36081 ft 465 kts 323°
2026-04-26 16:07 18.54253 -170.73154 36081 ft 466 kts 323°
2026-04-26 16:08 18.59763 -170.76791 36081 ft 466 kts 323°
2026-04-26 16:08 18.65227 -170.80402 36081 ft 466 kts 323°
2026-04-26 16:09 18.70730 -170.84041 36081 ft 466 kts 323°
2026-04-26 16:09 18.76203 -170.87663 36081 ft 466 kts 323°
2026-04-26 16:10 18.81686 -170.91298 36081 ft 468 kts 323°
2026-04-26 16:10 18.87222 -170.94970 36081 ft 469 kts 323°
2026-04-26 16:11 18.92728 -170.98624 36081 ft 470 kts 323°
2026-04-26 16:11 18.98285 -171.02313 36081 ft 470 kts 323°
2026-04-26 16:12 19.03811 -171.05985 36081 ft 470 kts 323°
2026-04-26 16:12 19.12117 -171.11510 36081 ft 470 kts 323°
2026-04-26 16:13 19.17642 -171.15188 36081 ft 470 kts 323°
2026-04-26 16:13 19.23168 -171.18871 36081 ft 470 kts 323°
2026-04-26 16:14 19.28730 -171.22581 36081 ft 472 kts 324°
2026-04-26 16:15 19.37059 -171.28145 36081 ft 474 kts 324°
2026-04-26 16:15 19.42655 -171.31886 36081 ft 475 kts 324°
2026-04-26 16:16 19.51023 -171.37484 36081 ft 475 kts 324°
2026-04-26 16:16 19.56637 -171.41244 36081 ft 476 kts 324°
2026-04-26 16:17 19.62225 -171.44988 36081 ft 476 kts 324°
2026-04-26 16:17 19.67803 -171.48730 36081 ft 476 kts 324°
2026-04-26 16:18 19.76186 -171.54359 36081 ft 476 kts 324°
2026-04-26 16:19 19.84599 -171.60019 36081 ft 477 kts 324°
2026-04-26 16:20 19.93018 -171.65688 36081 ft 478 kts 324°
2026-04-26 16:20 20.01470 -171.71384 36081 ft 478 kts 324°
2026-04-26 16:21 20.07065 -171.75160 36081 ft 478 kts 324°
2026-04-26 16:21 20.12671 -171.78946 36081 ft 478 kts 324°
2026-04-26 16:22 20.18285 -171.82741 36081 ft 478 kts 324°
2026-04-26 16:22 20.23921 -171.86554 36081 ft 478 kts 324°
2026-04-26 16:23 20.29528 -171.90353 36082 ft 478 kts 325°
2026-04-26 16:23 20.35141 -171.94158 36081 ft 477 kts 325°
2026-04-26 16:24 20.40713 -171.97938 36081 ft 476 kts 325°
2026-04-26 16:24 20.46318 -172.01743 36081 ft 476 kts 325°
2026-04-26 16:25 20.51876 -172.05520 36081 ft 475 kts 325°
2026-04-26 16:25 20.57468 -172.09322 36081 ft 475 kts 325°
2026-04-26 16:26 20.62114 -172.12485 36081 ft 475 kts 325°
2026-04-26 16:26 20.68580 -172.16890 36081 ft 475 kts 325°
2026-04-26 16:27 20.74165 -172.20699 36081 ft 475 kts 325°
2026-04-26 16:27 20.79754 -172.24517 36081 ft 477 kts 326°
2026-04-26 16:28 20.85352 -172.28343 36082 ft 478 kts 326°
2026-04-26 16:28 20.90935 -172.32161 36081 ft 478 kts 326°
2026-04-26 16:29 20.96550 -172.36004 36081 ft 478 kts 326°
2026-04-26 16:29 21.02123 -172.39820 36081 ft 478 kts 326°
2026-04-26 16:30 21.07733 -172.43666 36081 ft 478 kts 326°
2026-04-26 16:30 21.13311 -172.47494 36081 ft 478 kts 326°
2026-04-26 16:31 21.18920 -172.51346 36081 ft 478 kts 326°
2026-04-26 16:31 21.24494 -172.55178 36081 ft 478 kts 326°
2026-04-26 16:32 21.29171 -172.58398 36081 ft 478 kts 327°
2026-04-26 16:32 21.35701 -172.62896 36081 ft 478 kts 327°
2026-04-26 16:33 21.41288 -172.66748 36081 ft 479 kts 327°
2026-04-26 16:33 21.46901 -172.70621 36081 ft 479 kts 327°
2026-04-26 16:34 21.52485 -172.74477 36081 ft 479 kts 327°
2026-04-26 16:34 21.58091 -172.78353 36081 ft 479 kts 327°
2026-04-26 16:35 21.63707 -172.82239 36081 ft 480 kts 327°
2026-04-26 16:35 21.69309 -172.86118 36081 ft 480 kts 327°
2026-04-26 16:36 21.74898 -172.89993 36081 ft 480 kts 327°
2026-04-26 16:36 21.80527 -172.93900 36081 ft 479 kts 327°
2026-04-26 16:37 21.86114 -172.97782 36081 ft 479 kts 327°
2026-04-26 16:37 21.91731 -173.01687 36081 ft 479 kts 327°
2026-04-26 16:38 21.97313 -173.05571 36081 ft 479 kts 327°
2026-04-26 16:38 22.02918 -173.09476 36081 ft 479 kts 327°
2026-04-26 16:39 22.08493 -173.13363 36081 ft 479 kts 327°
2026-04-26 16:39 22.14077 -173.17260 36081 ft 479 kts 327°
2026-04-26 16:40 22.19684 -173.21177 36081 ft 479 kts 327°
2026-04-26 16:40 22.25259 -173.25075 36081 ft 479 kts 327°
2026-04-26 16:41 22.30871 -173.29004 36081 ft 478 kts 327°
2026-04-26 16:41 22.36448 -173.32913 36081 ft 478 kts 327°
2026-04-26 16:42 22.42023 -173.36822 36081 ft 478 kts 327°
2026-04-26 16:42 22.47587 -173.40728 36081 ft 478 kts 327°
2026-04-26 16:43 22.53189 -173.44663 36081 ft 478 kts 327°
2026-04-26 16:43 22.58755 -173.48579 36081 ft 478 kts 327°
2026-04-26 16:44 22.64315 -173.52492 36081 ft 478 kts 327°
2026-04-26 16:44 22.69910 -173.56436 36081 ft 478 kts 327°
2026-04-26 16:45 22.75466 -173.60355 36081 ft 478 kts 327°
2026-04-26 16:45 22.81062 -173.64307 36081 ft 478 kts 327°
2026-04-26 16:46 22.86613 -173.68230 36081 ft 478 kts 327°
2026-04-26 16:46 22.92201 -173.72184 36081 ft 478 kts 327°
2026-04-26 16:47 22.97763 -173.76123 36081 ft 478 kts 327°
2026-04-26 16:47 23.03288 -173.80034 36081 ft 476 kts 328°
2026-04-26 16:48 23.08855 -173.83988 36081 ft 476 kts 328°
2026-04-26 16:48 23.14390 -173.87921 36081 ft 476 kts 328°
2026-04-26 16:49 23.19922 -173.91856 36081 ft 477 kts 328°
2026-04-26 16:49 23.25468 -173.95804 36081 ft 477 kts 328°
2026-04-26 16:50 23.31003 -173.99749 36081 ft 477 kts 328°
2026-04-26 16:50 23.36555 -174.03711 36081 ft 478 kts 328°
2026-04-26 16:51 23.42109 -174.07676 36081 ft 478 kts 328°
2026-04-26 16:51 23.47674 -174.11653 36081 ft 478 kts 328°
2026-04-26 16:52 23.51418 -174.14330 36081 ft 479 kts 328°
2026-04-26 16:52 23.58819 -174.19629 36081 ft 479 kts 328°
2026-04-26 16:53 23.64374 -174.23611 36081 ft 479 kts 328°
2026-04-26 16:53 23.69961 -174.27622 36082 ft 478 kts 329°
2026-04-26 16:54 23.74558 -174.30925 36081 ft 476 kts 329°
2026-04-26 16:54 23.81003 -174.35562 36081 ft 474 kts 329°
2026-04-26 16:55 23.86482 -174.39507 36081 ft 473 kts 329°
2026-04-26 16:55 23.91059 -174.42805 36081 ft 472 kts 329°
2026-04-26 16:56 23.99267 -174.48726 36081 ft 471 kts 329°
2026-04-26 16:57 24.04763 -174.52695 36081 ft 471 kts 329°
2026-04-26 16:57 24.12950 -174.58615 36081 ft 471 kts 329°
2026-04-26 16:58 24.17470 -174.61889 36081 ft 471 kts 329°
2026-04-26 16:59 24.26564 -174.68482 36081 ft 470 kts 329°
2026-04-26 17:00 24.37462 -174.76397 36081 ft 467 kts 329°
2026-04-26 17:00 24.45581 -174.82309 36081 ft 466 kts 329°
2026-04-26 17:01 24.50969 -174.86236 36081 ft 466 kts 329°
2026-04-26 17:01 24.56361 -174.90171 36081 ft 466 kts 329°
2026-04-26 17:02 24.61751 -174.94107 36081 ft 466 kts 329°
2026-04-26 17:02 24.67170 -174.98069 36081 ft 466 kts 329°
2026-04-26 17:03 24.72548 -175.02004 36081 ft 466 kts 329°
2026-04-26 17:03 24.77950 -175.05962 36081 ft 466 kts 329°
2026-04-26 17:04 24.83326 -175.09905 36081 ft 466 kts 329°
2026-04-26 17:04 24.88706 -175.13855 36081 ft 466 kts 329°
2026-04-26 17:05 24.94117 -175.17831 36081 ft 466 kts 329°
2026-04-26 17:05 24.99503 -175.21794 36081 ft 466 kts 329°
2026-04-26 17:06 25.04874 -175.25750 36081 ft 466 kts 329°
2026-04-26 17:06 25.10267 -175.29727 36081 ft 466 kts 328°
2026-04-26 17:07 25.15640 -175.33693 36081 ft 466 kts 328°
2026-04-26 17:07 25.21008 -175.37660 36081 ft 466 kts 328°
2026-04-26 17:08 25.26412 -175.41657 36081 ft 466 kts 328°
2026-04-26 17:08 25.31781 -175.45633 36081 ft 466 kts 328°
2026-04-26 17:09 25.36262 -175.48955 36081 ft 466 kts 328°
2026-04-26 17:09 25.42549 -175.53621 36081 ft 466 kts 328°
2026-04-26 17:10 25.47927 -175.57616 36081 ft 466 kts 328°
2026-04-26 17:10 25.53309 -175.61619 36081 ft 466 kts 328°
2026-04-26 17:11 25.58664 -175.65607 36081 ft 466 kts 328°
2026-04-26 17:11 25.64059 -175.69628 36081 ft 466 kts 328°
2026-04-26 17:12 25.68942 -175.73272 36081 ft 466 kts 328°
2026-04-26 17:16 25.69376 -175.73596 36081 ft 466 kts 328°
2026-04-26 17:17 25.74736 -175.77601 36081 ft 466 kts 328°
2026-04-26 17:17 25.80105 -175.81616 36081 ft 466 kts 328°
2026-04-26 17:18 25.85458 -175.85624 36081 ft 466 kts 328°
2026-04-26 17:18 25.90855 -175.89670 36081 ft 466 kts 328°
2026-04-26 17:19 25.98929 -175.95728 35365 ft 469 kts 328°
2026-04-26 17:19 26.01606 -175.97738 34778 ft 468 kts 328°
2026-04-26 17:19 26.04302 -175.99765 34179 ft 467 kts 327°
2026-04-26 17:20 26.06992 -176.01787 33577 ft 465 kts 327°
2026-04-26 17:20 26.08774 -176.03128 33177 ft 463 kts 327°
2026-04-26 17:20 26.12296 -176.05781 32378 ft 459 kts 327°
2026-04-26 17:20 26.14932 -176.07768 31775 ft 456 kts 326°
2026-04-26 17:21 26.17554 -176.09745 31171 ft 453 kts 326°
2026-04-26 17:21 26.20163 -176.11714 30567 ft 449 kts 326°
2026-04-26 17:21 26.22745 -176.13664 29965 ft 446 kts 326°
2026-04-26 17:21 26.25306 -176.15600 29363 ft 443 kts 326°
2026-04-26 17:22 26.27814 -176.17497 28769 ft 439 kts 326°
2026-04-26 17:22 26.30336 -176.19405 28167 ft 436 kts 326°
2026-04-26 17:22 26.32844 -176.21303 27564 ft 432 kts 326°
2026-04-26 17:22 26.35330 -176.23186 26961 ft 429 kts 326°
2026-04-26 17:23 26.37761 -176.25028 26368 ft 426 kts 326°
2026-04-26 17:23 26.40208 -176.26883 25766 ft 423 kts 326°
2026-04-26 17:23 26.42632 -176.28721 25165 ft 420 kts 326°
2026-04-26 17:23 26.45046 -176.30553 24561 ft 416 kts 326°
2026-04-26 17:24 26.47409 -176.32347 23966 ft 413 kts 327°
2026-04-26 17:24 26.49779 -176.34147 23363 ft 409 kts 327°
2026-04-26 17:24 26.52126 -176.35931 22762 ft 406 kts 327°
2026-04-26 17:24 26.54466 -176.37710 22157 ft 403 kts 327°
2026-04-26 17:25 26.56757 -176.39453 21561 ft 400 kts 327°
2026-04-26 17:25 26.59065 -176.41209 20957 ft 397 kts 327°
2026-04-26 17:25 26.61317 -176.42924 20363 ft 395 kts 327°
2026-04-26 17:25 26.63590 -176.44655 19760 ft 392 kts 327°
2026-04-26 17:26 26.65848 -176.46375 19156 ft 389 kts 327°
2026-04-26 17:26 26.68047 -176.48051 18692 ft 384 kts 326°
2026-04-26 17:26 26.70249 -176.49730 18307 ft 380 kts 326°
2026-04-26 17:26 26.72415 -176.51382 17933 ft 378 kts 326°
2026-04-26 17:27 26.74593 -176.53043 17556 ft 376 kts 326°
2026-04-26 17:27 26.76756 -176.54695 17214 ft 374 kts 326°
2026-04-26 17:27 26.78902 -176.56335 16953 ft 370 kts 326°
2026-04-26 17:27 26.80994 -176.57934 16705 ft 368 kts 326°
2026-04-26 17:28 26.83111 -176.59552 16454 ft 367 kts 326°
2026-04-26 17:28 26.85227 -176.61171 16203 ft 366 kts 326°
2026-04-26 17:28 26.87333 -176.62783 15951 ft 364 kts 326°
2026-04-26 17:28 26.89397 -176.64364 15704 ft 363 kts 326°
2026-04-26 17:29 26.91488 -176.65966 15452 ft 361 kts 326°
2026-04-26 17:29 26.92861 -176.67019 15285 ft 360 kts 326°
2026-04-26 17:29 26.95597 -176.69116 14953 ft 357 kts 326°
2026-04-26 17:29 26.97652 -176.70693 14701 ft 355 kts 326°
2026-04-26 17:30 26.99675 -176.72246 14452 ft 354 kts 326°
2026-04-26 17:30 27.01706 -176.73806 14201 ft 352 kts 326°
2026-04-26 17:30 27.03737 -176.75366 13949 ft 351 kts 326°
2026-04-26 17:30 27.05727 -176.76896 13701 ft 350 kts 326°
2026-04-26 17:31 27.07740 -176.78444 13449 ft 349 kts 326°
2026-04-26 17:31 27.09744 -176.79986 13198 ft 347 kts 326°
2026-04-26 17:31 27.11717 -176.81505 12949 ft 346 kts 326°
2026-04-26 17:31 27.13705 -176.83035 12699 ft 345 kts 326°
2026-04-26 17:32 27.15690 -176.84565 12447 ft 344 kts 326°
2026-04-26 17:32 27.17664 -176.86086 12196 ft 343 kts 326°
2026-04-26 17:32 27.19629 -176.87601 11945 ft 341 kts 326°
2026-04-26 17:32 27.21562 -176.89092 11698 ft 340 kts 326°
2026-04-26 17:33 27.23513 -176.90597 11447 ft 339 kts 326°
2026-04-26 17:33 27.25459 -176.92100 11196 ft 338 kts 326°
2026-04-26 17:33 27.27402 -176.93600 10944 ft 337 kts 326°
2026-04-26 17:34 27.31238 -176.96565 10446 ft 335 kts 326°
2026-04-26 17:34 27.33158 -176.98050 10194 ft 332 kts 326°
2026-04-26 17:34 27.35067 -176.99527 9943 ft 331 kts 326°
2026-04-26 17:34 27.36940 -177.00977 9695 ft 329 kts 326°
2026-04-26 17:35 27.38834 -177.02443 9443 ft 328 kts 326°
2026-04-26 17:35 27.40712 -177.03898 9192 ft 325 kts 326°
2026-04-26 17:35 27.42523 -177.05302 8943 ft 313 kts 326°
2026-04-26 17:35 27.44298 -177.06680 8690 ft 304 kts 326°
2026-04-26 17:36 27.46034 -177.08027 8437 ft 299 kts 326°
2026-04-26 17:36 27.47722 -177.09338 8188 ft 296 kts 327°
2026-04-26 17:36 27.49417 -177.10653 7936 ft 293 kts 327°
2026-04-26 17:36 27.51092 -177.11954 7685 ft 291 kts 327°
2026-04-26 17:37 27.52743 -177.13236 7437 ft 290 kts 327°
2026-04-26 17:37 27.54411 -177.14532 7185 ft 289 kts 327°
2026-04-26 17:37 27.56064 -177.15817 6934 ft 288 kts 327°
2026-04-26 17:38 27.59342 -177.18365 6435 ft 286 kts 327°
2026-04-26 17:38 27.60987 -177.19645 6183 ft 285 kts 327°
2026-04-26 17:38 27.62624 -177.20919 5932 ft 285 kts 327°
2026-04-26 17:38 27.64230 -177.22170 5685 ft 284 kts 327°
2026-04-26 17:39 27.65860 -177.23440 5434 ft 283 kts 328°
2026-04-26 17:39 27.67484 -177.24706 5182 ft 282 kts 328°
2026-04-26 17:39 27.69088 -177.25955 4933 ft 281 kts 328°
2026-04-26 17:39 27.70702 -177.27214 4682 ft 281 kts 328°
2026-04-26 17:40 27.72292 -177.28454 4434 ft 280 kts 328°
2026-04-26 17:40 27.72833 -177.28876 4349 ft 279 kts 328°
2026-04-26 17:40 27.75471 -177.30936 4076 ft 275 kts 328°
2026-04-26 17:40 27.77045 -177.32165 4018 ft 274 kts 328°
2026-04-26 17:41 27.78609 -177.33387 4004 ft 273 kts 328°
2026-04-26 17:41 27.80174 -177.34610 4001 ft 273 kts 328°
2026-04-26 17:41 27.81737 -177.35831 4000 ft 273 kts 328°
2026-04-26 17:41 27.83307 -177.37058 4000 ft 274 kts 328°
2026-04-26 17:42 27.84862 -177.38274 4000 ft 275 kts 328°
2026-04-26 17:42 27.86446 -177.39513 4000 ft 275 kts 328°
2026-04-26 17:42 27.87490 -177.40331 4000 ft 275 kts 328°
2026-04-26 17:42 27.89582 -177.41968 4000 ft 276 kts 328°
2026-04-26 17:43 27.91163 -177.43208 3999 ft 276 kts 328°
2026-04-26 17:43 27.92211 -177.44029 4000 ft 276 kts 328°
2026-04-26 17:43 27.93794 -177.45270 4001 ft 276 kts 328°
2026-04-26 17:43 27.95896 -177.46918 3799 ft 283 kts 328°
2026-04-26 17:44 27.96995 -177.47780 3549 ft 284 kts 328°
2026-04-26 17:44 27.98584 -177.49028 3178 ft 280 kts 328°
2026-04-26 17:44 28.00160 -177.50258 2801 ft 268 kts 329°
2026-04-26 17:44 28.01720 -177.51334 2424 ft 257 kts 334°
2026-04-26 17:45 28.03272 -177.52261 2146 ft 244 kts 337°
2026-04-26 17:45 28.04722 -177.53039 2040 ft 218 kts 339°
2026-04-26 17:45 28.06009 -177.53680 1998 ft 197 kts 341°
2026-04-26 17:45 28.07297 -177.54283 2002 ft 200 kts 342°
2026-04-26 17:46 28.08585 -177.54865 1999 ft 197 kts 343°
2026-04-26 17:46 28.09846 -177.55426 1999 ft 196 kts 343°
2026-04-26 17:46 28.11087 -177.55977 2004 ft 193 kts 343°
2026-04-26 17:46 28.12359 -177.56513 1995 ft 192 kts 348°
2026-04-26 17:47 28.13636 -177.56452 1991 ft 182 kts 25°
2026-04-26 17:47 28.14322 -177.55922 2000 ft 178 kts 50°
2026-04-26 17:47 28.14927 -177.54335 2250 ft 146 kts 81°
2026-04-26 17:47 28.15094 -177.53320 2200 ft 127 kts 82°
2026-04-26 17:48 28.15290 -177.52357 1896 ft 121 kts 81°
2026-04-26 17:48 28.15487 -177.51480 1712 ft 117 kts 77°
2026-04-26 17:48 28.15790 -177.50612 1453 ft 119 kts 70°
2026-04-26 17:48 28.16133 -177.49777 1275 ft 114 kts 70°
2026-04-26 17:49 28.16445 -177.48980 1187 ft 108 kts 71°
2026-04-26 17:49 28.16726 -177.48266 1277 ft 94 kts 70°
2026-04-26 17:49 28.16992 -177.47556 1210 ft 102 kts 73°
2026-04-26 17:49 28.17267 -177.46778 1196 ft 109 kts 72°
2026-04-26 17:50 28.17532 -177.45942 1153 ft 115 kts 74°
2026-04-26 17:50 28.17781 -177.45076 1135 ft 117 kts 76°
2026-04-26 17:50 28.18053 -177.44192 1093 ft 121 kts 73°
2026-04-26 17:50 28.18361 -177.43315 1013 ft 111 kts 71°
2026-04-26 17:51 28.18636 -177.42576 794 ft 97 kts 71°
2026-04-26 17:51 28.18873 -177.41870 593 ft 95 kts 73°
2026-04-26 17:51 28.19106 -177.41162 441 ft 99 kts 72°
2026-04-26 17:51 28.19371 -177.40401 271 ft 107 kts 70°
2026-04-26 17:52 28.19647 -177.39597 93 ft 107 kts 70°
2026-04-26 17:52 28.19886 -177.38882 20 ft 83 kts 68°
2026-04-26 17:52 28.19984 -177.38606 20 ft 15 kts 69°
2026-04-26 17:52 28.20016 -177.38515 20 ft 10 kts 68°
2026-04-26 17:53 28.20040 -177.38449 20 ft 9 kts 68°
2026-04-26 17:53 28.20064 -177.38382 20 ft 9 kts 68°
2026-04-26 17:53 28.20098 -177.38286 20 ft 18 kts 68°
2026-04-26 17:54 28.20243 -177.38142 20 ft 19 kts 340°
2026-04-26 17:54 28.20406 -177.38211 20 ft 24 kts 338°
2026-04-26 17:54 28.20550 -177.38278 20 ft 21 kts 338°
2026-04-26 17:54 28.20685 -177.38331 20 ft 18 kts
2026-04-26 17:55 28.20736 -177.38250 20 ft 12 kts 66°
2026-04-26 17:55 28.20764 -177.38170 20 ft 11 kts 69°
2026-04-26 17:55 28.20808 -177.38130 20 ft 9 kts 352°
2026-04-26 17:55 28.20840 -177.38143 20 ft 0 kts 338°